Time;durP1;ratioP1;P1;durP2;ratioP2;P2;SDS_P1;SDS_P2;PMS_P1;PMS_P2;Temp;Humidity;BMP_temperature;BMP_pressure;BME280_temperature;BME280_humidity;BME280_pressure;Samples;Min_cycle;Max_cycle;Signal;HPM_P1;HPM_P2
2023/08/29 00:01:06;;;;;;;7.07;5.00;;;;;;;14.86;100.00;99936.28;5007995;28;20223;-67
2023/08/29 00:03:33;;;;;;;5.30;4.73;;;;;;;14.83;100.00;99935.44;5007566;28;20209;-67
2023/08/29 00:06:04;;;;;;;5.10;4.50;;;;;;;14.80;100.00;99932.78;5006066;28;20637;-67
2023/08/29 00:08:33;;;;;;;6.87;5.30;;;;;;;14.78;100.00;99929.25;5009112;28;20254;-68
2023/08/29 00:11:01;;;;;;;5.33;4.83;;;;;;;14.72;100.00;99931.09;5007936;28;20307;-67
2023/08/29 00:13:27;;;;;;;5.83;5.03;;;;;;;14.68;100.00;99925.81;5009720;28;20210;-67
2023/08/29 00:15:55;;;;;;;8.43;5.00;;;;;;;14.71;100.00;99928.44;5009145;28;20196;-66
2023/08/29 00:18:22;;;;;;;7.10;5.73;;;;;;;14.77;100.00;99922.16;5008666;28;20227;-67
2023/08/29 00:20:48;;;;;;;8.80;5.77;;;;;;;14.73;100.00;99927.53;5010119;28;20227;-67
2023/08/29 00:23:15;;;;;;;7.47;5.40;;;;;;;14.70;100.00;99926.69;5009821;28;20250;-68
2023/08/29 00:25:41;;;;;;;6.47;5.20;;;;;;;14.72;100.00;99927.53;5024282;28;20208;-68
2023/08/29 00:28:08;;;;;;;5.67;4.97;;;;;;;14.76;100.00;99939.06;5008697;28;20306;-66
2023/08/29 00:30:38;;;;;;;9.27;4.93;;;;;;;14.82;100.00;99934.56;5009115;28;20786;-68
2023/08/29 00:33:09;;;;;;;8.53;5.73;;;;;;;14.90;100.00;99940.69;5005321;28;20207;-66
2023/08/29 00:35:36;;;;;;;6.13;5.53;;;;;;;14.88;100.00;99936.28;5011154;28;20212;-68
2023/08/29 00:38:03;;;;;;;7.53;5.50;;;;;;;14.89;100.00;99932.69;5010492;28;20224;-67
2023/08/29 00:40:30;;;;;;;7.90;5.73;;;;;;;14.93;100.00;99940.66;5009453;28;20247;-66
2023/08/29 00:43:01;;;;;;;6.37;5.00;;;;;;;14.92;100.00;99938.00;5010021;28;20215;-68
2023/08/29 00:45:29;;;;;;;7.67;5.43;;;;;;;14.96;100.00;99947.72;5005886;28;20207;-68
2023/08/29 00:47:56;;;;;;;6.83;5.40;;;;;;;14.95;100.00;99960.19;5008969;28;20307;-68
2023/08/29 00:50:23;;;;;;;6.17;5.10;;;;;;;15.00;100.00;99962.78;5008022;28;20292;-67
2023/08/29 00:52:54;;;;;;;6.90;4.80;;;;;;;14.93;100.00;99967.31;5009805;28;20222;-66
2023/08/29 00:55:22;;;;;;;6.17;5.10;;;;;;;14.99;100.00;99967.25;5005309;28;20210;-68
2023/08/29 00:57:50;;;;;;;7.00;5.13;;;;;;;14.98;100.00;99977.91;5009467;28;20307;-67
2023/08/29 01:00:17;;;;;;;5.80;5.20;;;;;;;14.93;100.00;99969.09;5004775;28;20467;-66
2023/08/29 01:02:43;;;;;;;6.77;5.30;;;;;;;15.00;100.00;99963.66;5008159;28;20208;-69
2023/08/29 01:05:12;;;;;;;6.37;4.83;;;;;;;15.03;100.00;99968.97;5006913;28;20200;-67
2023/08/29 01:07:39;;;;;;;7.40;5.60;;;;;;;15.07;100.00;99969.81;5009054;28;20314;-68
2023/08/29 01:10:06;;;;;;;5.70;5.03;;;;;;;15.09;100.00;99972.47;5008645;28;20207;-66
2023/08/29 01:12:43;;;;;;;6.87;4.87;;;;;;;15.09;100.00;99983.13;5010945;28;20582;-67
2023/08/29 01:15:23;;;;;;;6.40;5.33;;;;;;;15.07;100.00;99991.16;5004253;28;20219;-67
2023/08/29 01:17:58;;;;;;;8.30;5.50;;;;;;;15.16;100.00;99988.38;5006491;28;20270;-68
2023/08/29 01:20:27;;;;;;;5.83;5.20;;;;;;;15.17;100.00;99987.47;5007741;28;20196;-67
2023/08/29 01:23:10;;;;;;;6.30;5.47;;;;;;;15.14;100.00;99981.28;5009200;28;20646;-67
2023/08/29 01:25:52;;;;;;;7.67;5.70;;;;;;;15.19;100.00;99988.31;5006450;28;20302;-68
2023/08/29 01:28:20;;;;;;;6.30;5.00;;;;;;;15.17;100.00;99983.91;5006204;28;20227;-68
2023/08/29 01:30:47;;;;;;;6.33;4.70;;;;;;;15.16;100.00;99996.38;5007376;28;20630;-68
2023/08/29 01:33:14;;;;;;;6.20;5.40;;;;;;;15.17;100.00;99990.13;5006216;28;20270;-68
2023/08/29 01:35:47;;;;;;;7.23;5.23;;;;;;;15.16;100.00;99991.03;5006757;28;20215;-69
2023/08/29 01:38:17;;;;;;;6.17;5.30;;;;;;;15.12;100.00;99994.63;5009015;28;20712;-67
2023/08/29 01:40:44;;;;;;;5.80;5.23;;;;;;;15.06;100.00;99994.72;5007438;28;20230;-66
2023/08/29 01:43:10;;;;;;;7.10;5.47;;;;;;;15.12;100.00;99991.09;5006080;28;20204;-66
2023/08/29 01:45:37;;;;;;;6.40;5.80;;;;;;;15.14;100.00;99983.94;5005328;28;20235;-67
2023/08/29 01:48:04;;;;;;;7.07;5.43;;;;;;;15.12;100.00;99975.97;5002646;28;20295;-66
2023/08/29 01:50:32;;;;;;;6.70;5.20;;;;;;;15.11;100.00;99984.88;5009133;28;20709;-66
2023/08/29 01:53:00;;;;;;;6.90;5.37;;;;;;;15.02;100.00;99971.66;5009328;28;20204;-67
2023/08/29 01:55:28;;;;;;;5.73;5.00;;;;;;;14.96;100.00;99966.38;5006523;28;20283;-68
2023/08/29 01:57:57;;;;;;;6.87;5.07;;;;;;;14.93;100.00;99958.44;5004244;28;20220;-67
2023/08/29 02:00:24;;;;;;;5.00;4.50;;;;;;;14.87;100.00;99953.16;5008249;28;20287;-67
2023/08/29 02:02:50;;;;;;;6.43;5.37;;;;;;;14.87;100.00;99935.38;5006968;28;20200;-67
2023/08/29 02:05:17;;;;;;;9.27;5.63;;;;;;;14.79;100.00;99939.91;5007542;28;20386;-66
2023/08/29 02:07:43;;;;;;;7.07;5.20;;;;;;;14.80;100.00;99943.44;5007205;28;20601;-69
2023/08/29 02:10:10;;;;;;;8.60;5.63;;;;;;;14.78;100.00;99938.13;5012339;28;20200;-67
2023/08/29 02:12:37;;;;;;;5.43;4.80;;;;;;;14.82;100.00;99942.56;5013673;28;20200;-68
2023/08/29 02:15:05;;;;;;;7.17;5.57;;;;;;;14.88;100.00;99939.81;5011251;28;20200;-68
2023/08/29 02:17:32;;;;;;;7.37;5.17;;;;;;;14.90;100.00;99937.13;5008982;28;20220;-67
2023/08/29 02:19:59;;;;;;;6.37;5.30;;;;;;;14.95;100.00;99937.97;5012556;28;20204;-66
2023/08/29 02:22:26;;;;;;;6.40;5.10;;;;;;;14.94;100.00;99931.75;5010031;28;20684;-68
2023/08/29 02:24:52;;;;;;;8.00;5.10;;;;;;;14.90;100.00;99932.69;5011362;28;20207;-67
2023/08/29 02:27:18;;;;;;;7.93;5.47;;;;;;;14.92;100.00;99930.00;5009735;28;20243;-68
2023/08/29 02:29:45;;;;;;;6.90;5.43;;;;;;;14.90;100.00;99929.13;5009980;28;20283;-67
2023/08/29 02:32:11;;;;;;;7.47;5.30;;;;;;;14.90;100.00;99926.47;5011628;28;20227;-67
2023/08/29 02:34:38;;;;;;;6.00;5.40;;;;;;;14.96;100.00;99918.41;5011545;28;20572;-68
2023/08/29 02:37:04;;;;;;;7.63;5.30;;;;;;;15.00;100.00;99902.34;5009983;28;20223;-67
2023/08/29 02:39:31;;;;;;;6.47;5.37;;;;;;;15.02;100.00;99895.19;5008854;28;20200;-67
2023/08/29 02:41:58;;;;;;;7.23;5.17;;;;;;;15.04;100.00;99890.72;5011434;28;20691;-68
2023/08/29 02:44:24;;;;;;;8.53;5.67;;;;;;;15.03;100.00;99882.75;5011926;28;20287;-67
2023/08/29 02:46:50;;;;;;;8.77;5.80;;;;;;;15.02;100.00;99875.66;5010133;28;20216;-66
2023/08/29 02:49:17;;;;;;;5.97;5.37;;;;;;;15.07;100.00;99870.25;5010451;28;20259;-67
2023/08/29 02:51:43;;;;;;;6.53;5.60;;;;;;;15.11;100.00;99880.84;5006876;28;20215;-66
2023/08/29 02:54:10;;;;;;;6.37;5.70;;;;;;;15.15;100.00;99876.34;5011086;28;20292;-67
2023/08/29 02:56:36;;;;;;;7.17;5.87;;;;;;;15.13;100.00;99889.72;5010886;28;20708;-68
2023/08/29 02:59:02;;;;;;;7.27;5.63;;;;;;;15.18;100.00;99884.31;5005103;28;20291;-66
2023/08/29 03:01:29;;;;;;;7.03;5.27;;;;;;;15.22;100.00;99878.06;5010161;28;20683;-67
2023/08/29 03:03:55;;;;;;;6.87;5.23;;;;;;;15.19;100.00;99868.28;5009557;28;20290;-67
2023/08/29 03:06:22;;;;;;;6.97;5.70;;;;;;;15.22;100.00;99867.41;5009939;28;20250;-70
2023/08/29 03:08:48;;;;;;;8.10;5.60;;;;;;;15.18;100.00;99868.31;5009402;28;20302;-67
2023/08/29 03:11:15;;;;;;;7.47;5.90;;;;;;;15.16;100.00;99868.34;5010075;28;20243;-66
2023/08/29 03:13:41;;;;;;;8.03;5.50;;;;;;;15.07;100.00;99871.13;5010598;28;20291;-68
2023/08/29 03:16:12;;;;;;;7.27;5.87;;;;;;;15.01;100.00;99868.56;5010650;28;20308;-67
2023/08/29 03:18:38;;;;;;;9.13;5.33;;;;;;;15.03;100.00;99877.41;5009985;28;20200;-68
2023/08/29 03:21:08;;;;;;;6.50;5.90;;;;;;;14.94;100.00;99873.09;5010886;28;20206;-68
2023/08/29 03:23:35;;;;;;;7.80;6.10;;;;;;;14.92;100.00;99882.88;5011104;28;20223;-66
2023/08/29 03:26:06;;;;;;;7.77;5.80;;;;;;;14.88;100.00;99873.16;5010011;28;20290;-66
2023/08/29 03:28:37;;;;;;;7.50;5.13;;;;;;;14.84;100.00;99870.56;5011249;28;20246;-67
2023/08/29 03:31:08;;;;;;;6.73;5.40;;;;;;;14.87;100.00;99881.19;5011206;28;20208;-68
2023/08/29 03:33:34;;;;;;;7.63;5.40;;;;;;;14.77;100.00;99892.84;5009391;28;20704;-68
2023/08/29 03:36:01;;;;;;;7.23;5.67;;;;;;;14.71;100.00;99886.69;5010991;28;20236;-66
2023/08/29 03:38:27;;;;;;;7.40;5.23;;;;;;;14.68;100.00;99892.03;5010777;28;20286;-67
2023/08/29 03:40:57;;;;;;;8.33;5.97;;;;;;;14.60;100.00;99898.38;5010966;28;20206;-67
2023/08/29 03:43:30;;;;;;;6.73;5.93;;;;;;;14.51;100.00;99902.03;5010215;28;20204;-67
2023/08/29 03:46:00;;;;;;;10.10;6.10;;;;;;;14.52;100.00;99917.09;5006485;28;20214;-67
2023/08/29 03:48:27;;;;;;;7.90;5.40;;;;;;;14.51;100.00;99907.34;5006048;28;20215;-68
2023/08/29 03:50:55;;;;;;;5.47;4.90;;;;;;;14.49;100.00;99906.47;5009479;28;20283;-67
2023/08/29 03:53:22;;;;;;;8.47;6.30;;;;;;;14.47;100.00;99908.28;5009782;28;20215;-65
2023/08/29 03:55:48;;;;;;;8.47;5.53;;;;;;;14.47;100.00;99907.41;5010723;28;20212;-66
2023/08/29 03:58:15;;;;;;;7.93;5.50;;;;;;;14.47;100.00;99907.41;5008759;28;20716;-67
2023/08/29 04:00:42;;;;;;;8.13;5.77;;;;;;;14.46;100.00;99914.50;5006466;28;20207;-68
2023/08/29 04:03:09;;;;;;;5.77;5.17;;;;;;;14.48;100.00;99915.38;5009371;28;20234;-68
2023/08/29 04:05:37;;;;;;;7.00;5.50;;;;;;;14.48;100.00;99910.03;5010190;28;20287;-66
2023/08/29 04:08:07;;;;;;;7.10;5.37;;;;;;;14.56;100.00;99907.28;5009220;28;20239;-67
2023/08/29 04:10:38;;;;;;;7.30;6.00;;;;;;;14.56;100.00;99908.19;5007985;28;20628;-67
2023/08/29 04:13:06;;;;;;;8.67;5.43;;;;;;;14.60;100.00;99911.69;5009505;28;20197;-68
2023/08/29 04:15:33;;;;;;;6.43;5.00;;;;;;;14.62;100.00;99908.09;5005849;28;20625;-67
2023/08/29 04:18:03;;;;;;;7.20;5.47;;;;;;;14.68;100.00;99907.16;5010091;28;20216;-67
2023/08/29 04:20:31;;;;;;;7.83;5.47;;;;;;;14.72;100.00;99909.75;5009090;28;20221;-67
2023/08/29 04:22:58;;;;;;;7.43;5.90;;;;;;;14.74;100.00;99905.28;5009876;28;20704;-68
2023/08/29 04:25:27;;;;;;;7.93;5.50;;;;;;;14.73;100.00;99902.66;5007237;28;20741;-67
2023/08/29 04:27:54;;;;;;;9.60;5.13;;;;;;;14.67;100.00;99902.72;5005651;28;20737;-67
2023/08/29 04:30:20;;;;;;;6.57;5.40;;;;;;;14.60;100.00;99909.91;5005434;28;20234;-65
2023/08/29 04:32:48;;;;;;;7.30;5.30;;;;;;;14.51;100.00;99902.03;5008141;28;20208;-67
2023/08/29 04:35:14;;;;;;;6.00;5.40;;;;;;;14.51;100.00;99896.69;5008707;28;20211;-67
2023/08/29 04:37:44;;;;;;;6.47;5.87;;;;;;;14.48;100.00;99902.06;5008482;28;20218;-68
2023/08/29 04:40:11;;;;;;;6.83;5.63;;;;;;;14.44;100.00;99894.09;5008186;28;20205;-69
2023/08/29 04:42:39;;;;;;;8.27;5.63;;;;;;;14.47;100.00;99899.41;5006304;28;20291;-67
2023/08/29 04:45:08;;;;;;;7.60;5.73;;;;;;;14.50;100.00;99896.72;5003869;28;20207;-67
2023/08/29 04:47:35;;;;;;;7.60;5.57;;;;;;;14.47;100.00;99889.63;5007766;28;20310;-67
2023/08/29 04:50:03;;;;;;;6.77;5.10;;;;;;;14.46;100.00;99893.19;5007499;28;20208;-68
2023/08/29 04:52:29;;;;;;;7.00;5.50;;;;;;;14.47;100.00;99894.06;5009709;28;20207;-67
2023/08/29 04:54:56;;;;;;;8.57;5.47;;;;;;;14.43;100.00;99881.69;5008880;28;20208;-68
2023/08/29 04:57:22;;;;;;;6.60;5.40;;;;;;;14.45;100.00;99894.09;5008970;28;20259;-67
2023/08/29 04:59:49;;;;;;;7.50;5.97;;;;;;;14.58;100.00;99885.06;5011378;28;20200;-68
2023/08/29 05:02:16;;;;;;;7.73;6.10;;;;;;;14.61;100.00;99895.69;5005249;28;20204;-68
2023/08/29 05:04:43;;;;;;;7.83;5.40;;;;;;;14.68;100.00;99897.38;5008778;28;20211;-68
2023/08/29 05:07:09;;;;;;;7.87;5.90;;;;;;;14.70;100.00;99892.03;5007014;28;20256;-67
2023/08/29 05:09:36;;;;;;;6.77;5.80;;;;;;;14.70;100.00;99892.03;5012441;28;20200;-66
2023/08/29 05:12:04;;;;;;;6.30;5.20;;;;;;;14.70;100.00;99890.25;5008031;28;20204;-67
2023/08/29 05:14:30;;;;;;;7.03;5.50;;;;;;;14.67;100.00;99889.41;5005161;28;20278;-68
2023/08/29 05:16:56;;;;;;;6.40;5.30;;;;;;;14.66;100.00;99890.28;5007773;28;20228;-66
2023/08/29 05:19:23;;;;;;;6.30;5.53;;;;;;;14.70;100.00;99894.69;5007712;28;20200;-68
2023/08/29 05:21:49;;;;;;;7.37;5.40;;;;;;;14.71;100.00;99897.34;5008275;28;20204;-68
2023/08/29 05:24:15;;;;;;;6.23;5.10;;;;;;;14.73;100.00;99894.66;5008743;28;20582;-67
2023/08/29 05:26:44;;;;;;;6.03;4.83;;;;;;;14.70;100.00;99890.25;5008491;28;20664;-66
2023/08/29 05:29:10;;;;;;;7.10;4.90;;;;;;;14.74;100.00;99891.09;5008145;28;20211;-66
2023/08/29 05:31:37;;;;;;;6.20;5.07;;;;;;;14.73;100.00;99892.88;5008061;28;20203;-66
2023/08/29 05:34:03;;;;;;;5.87;4.57;;;;;;;14.81;100.00;99889.22;5004504;28;20394;-67
2023/08/29 05:36:30;;;;;;;7.73;4.67;;;;;;;14.87;100.00;99887.41;5006255;28;20216;-66
2023/08/29 05:38:56;;;;;;;6.43;5.00;;;;;;;14.94;100.00;99896.19;5007382;28;20208;-67
2023/08/29 05:41:22;;;;;;;6.57;4.90;;;;;;;15.01;100.00;99888.09;5008450;28;20211;-68
2023/08/29 05:43:49;;;;;;;7.53;5.10;;;;;;;15.17;100.00;99890.56;5007107;28;20208;-67
2023/08/29 05:46:15;;;;;;;6.20;4.97;;;;;;;15.26;100.00;99896.69;5005909;28;20279;-67
2023/08/29 05:48:44;;;;;;;6.60;5.20;;;;;;;15.31;100.00;99891.28;5007371;28;20691;-67
2023/08/29 05:51:10;;;;;;;6.47;5.20;;;;;;;15.40;100.00;99890.25;5007785;28;20664;-67
2023/08/29 05:53:37;;;;;;;8.97;5.50;;;;;;;15.44;100.00;99894.63;5006782;28;20195;-67
2023/08/29 05:56:03;;;;;;;7.50;4.97;;;;;;;15.50;100.00;99894.53;5006236;28;20204;-68
2023/08/29 05:58:30;;;;;;;7.53;4.80;;;;;;;15.59;100.00;99895.31;5010482;28;20208;-66
2023/08/29 06:00:56;;;;;;;8.90;4.90;;;;;;;15.65;100.00;99894.38;5006229;28;20204;-66
2023/08/29 06:03:23;;;;;;;6.17;4.67;;;;;;;15.69;100.00;99895.22;5007860;28;20475;-67
2023/08/29 06:05:49;;;;;;;5.70;4.73;;;;;;;15.73;100.00;99888.91;5006602;28;20204;-66
2023/08/29 06:08:16;;;;;;;5.60;4.77;;;;;;;15.75;100.00;99887.97;5006904;28;20279;-67
2023/08/29 06:10:46;;;;;;;9.03;5.10;;;;;;;15.93;100.00;99884.13;5007859;28;20565;-67
2023/08/29 06:13:12;;;;;;;5.47;4.40;;;;;;;15.97;100.00;99884.03;5009000;28;20291;-67
2023/08/29 06:15:39;;;;;;;8.57;5.37;;;;;;;16.07;100.00;99886.56;5006356;28;20199;-67
2023/08/29 06:18:05;;;;;;;8.10;4.83;;;;;;;16.13;100.00;99886.47;5006582;28;20227;-67
2023/08/29 06:20:32;;;;;;;5.43;4.60;;;;;;;16.25;100.00;99886.25;5007713;28;20274;-66
2023/08/29 06:22:58;;;;;;;7.40;5.00;;;;;;;16.28;100.00;99883.50;5023477;28;20294;-68
2023/08/29 06:25:25;;;;;;;5.70;4.70;;;;;;;16.42;100.00;99884.16;5005807;28;20296;-67
2023/08/29 06:27:51;;;;;;;7.83;4.97;;;;;;;16.42;100.00;99889.50;5005058;28;20235;-67
2023/08/29 06:30:18;;;;;;;7.93;4.90;;;;;;;16.51;100.00;99883.09;5006816;28;20303;-66
2023/08/29 06:32:44;;;;;;;8.43;5.10;;;;;;;16.55;100.00;99885.69;5011919;28;20215;-67
2023/08/29 06:35:11;;;;;;;9.03;4.83;;;;;;;16.71;100.00;99888.97;5006693;28;20668;-66
2023/08/29 06:37:38;;;;;;;7.60;4.80;;;;;;;16.82;100.00;99884.31;5007404;28;20224;-67
2023/08/29 06:40:05;;;;;;;7.73;5.40;;;;;;;16.85;100.00;99886.94;5007424;28;20235;-66
2023/08/29 06:42:32;;;;;;;8.27;5.03;;;;;;;16.92;100.00;99887.69;5008190;28;20271;-66
2023/08/29 06:44:58;;;;;;;5.27;4.77;;;;;;;16.95;100.00;99892.97;5006691;28;20210;-67
2023/08/29 06:47:25;;;;;;;7.00;4.97;;;;;;;17.07;100.00;99886.47;5002915;28;20307;-67
2023/08/29 06:49:55;;;;;;;5.47;4.87;;;;;;;17.10;100.00;99891.75;5008448;28;20227;-67
2023/08/29 06:52:21;;;;;;;6.03;4.60;;;;;;;17.27;100.00;99886.06;5012275;28;20657;-66
2023/08/29 06:54:48;;;;;;;7.17;5.10;;;;;;;17.35;100.00;99887.66;5012349;28;20680;-68
2023/08/29 06:57:14;;;;;;;6.00;4.63;;;;;;;17.34;100.00;99895.72;5009552;28;20224;-67
2023/08/29 06:59:41;;;;;;;5.17;4.30;;;;;;;17.43;100.00;99898.19;5011252;28;20291;-67
2023/08/29 07:02:07;;;;;;;6.87;4.60;;;;;;;17.49;100.00;99896.22;5009262;28;20291;-67
2023/08/29 07:04:34;;;;;;;5.50;4.83;;;;;;;17.69;100.00;99903.84;5012837;28;20203;-67
2023/08/29 07:07:00;;;;;;;10.23;4.30;;;;;;;17.81;100.00;99900.00;5008583;28;20225;-67
2023/08/29 07:09:30;;;;;;;5.73;4.67;;;;;;;17.96;100.00;99910.34;5009843;28;20227;-68
2023/08/29 07:11:57;;;;;;;6.77;4.43;;;;;;;18.08;100.00;99901.13;5007306;28;20203;-67
2023/08/29 07:14:23;;;;;;;5.80;4.00;;;;;;;18.26;100.00;99907.81;5009732;28;20637;-66
2023/08/29 07:16:50;;;;;;;5.77;4.07;;;;;;;18.43;100.00;99909.16;5005355;28;20759;-67
2023/08/29 07:19:35;;;;;;;6.07;3.70;;;;;;;18.51;100.00;99908.94;5006775;28;20200;-67
2023/08/29 07:22:01;;;;;;;7.63;4.10;;;;;;;18.61;100.00;99907.78;5010259;28;20247;-67
2023/08/29 07:24:29;;;;;;;5.53;4.47;;;;;;;18.51;100.00;99905.38;5009665;28;20204;-67
2023/08/29 07:26:56;;;;;;;6.23;4.50;;;;;;;18.64;100.00;99906.84;5007842;28;20228;-67
2023/08/29 07:29:22;;;;;;;6.03;4.47;;;;;;;18.51;100.00;99911.63;5006701;28;20224;-67
2023/08/29 07:31:49;;;;;;;4.73;4.20;;;;;;;18.71;100.00;99914.69;5000346;28;20337;-69
2023/08/29 07:34:16;;;;;;;5.47;4.17;;;;;;;19.13;100.00;99914.38;5005447;28;20669;-69
2023/08/29 07:36:42;;;;;;;5.00;3.93;;;;;;;19.44;100.00;99918.84;5008583;28;20315;-69
2023/08/29 07:39:11;;;;;;;5.53;4.30;;;;;;;19.39;100.00;99927.06;5007632;28;20662;-70
2023/08/29 07:41:38;;;;;;;4.40;3.63;;;;;;;19.59;100.00;99924.66;5006095;28;20230;-68
2023/08/29 07:44:05;;;;;;;5.27;4.17;;;;;;;19.39;100.00;99929.75;5009526;28;20212;-69
2023/08/29 07:46:31;;;;;;;8.57;4.63;;;;;;;19.45;100.00;99936.72;5004200;28;20294;-70
2023/08/29 07:48:57;;;;;;;6.20;4.60;;;;;;;19.74;100.00;99931.38;5012393;28;20220;-68
2023/08/29 07:51:24;;;;;;;5.57;4.43;;;;;;;19.92;100.00;99938.84;5010826;28;20200;-68
2023/08/29 07:53:50;;;;;;;5.70;4.53;;;;;;;20.24;100.00;99939.63;5000858;28;20204;-67
2023/08/29 07:56:17;;;;;;;6.67;4.13;;;;;;;20.00;100.00;99939.47;5009790;28;20209;-68
2023/08/29 07:58:43;;;;;;;4.20;3.77;;;;;;;20.04;100.00;99942.97;5014162;28;20300;-68
2023/08/29 08:01:10;;;;;;;4.75;3.83;;;;;;;20.05;100.00;99947.44;5005289;28;20585;-69
2023/08/29 08:03:38;;;;;;;4.43;3.72;;;;;;;20.07;100.00;99944.69;5011308;28;20212;-68
2023/08/29 08:06:04;;;;;;;5.43;3.60;;;;;;;19.98;100.00;99943.16;5008839;28;20254;-68
2023/08/29 08:08:30;;;;;;;5.43;3.10;;;;;;;20.45;100.00;99956.91;5009960;28;20231;-67
2023/08/29 08:10:57;;;;;;;4.32;3.40;;;;;;;20.73;100.00;99957.69;5006828;28;20208;-69
2023/08/29 08:13:28;;;;;;;4.15;3.17;;;;;;;20.96;100.00;99955.06;5023372;28;20199;-69
2023/08/29 08:15:54;;;;;;;4.72;3.85;;;;;;;20.93;100.00;99951.59;5008007;28;20591;-68
2023/08/29 08:18:20;;;;;;;7.00;3.80;;;;;;;20.53;100.00;99952.13;5009438;28;20292;-68
2023/08/29 08:20:47;;;;;;;4.07;3.63;;;;;;;20.52;100.00;99948.56;5007897;28;20324;-68
2023/08/29 08:23:13;;;;;;;4.10;3.53;;;;;;;20.78;100.00;99962.91;5007610;28;20296;-72
2023/08/29 08:25:40;;;;;;;4.03;3.13;;;;;;;20.97;100.00;99961.31;5006037;28;20199;-73
2023/08/29 08:28:06;;;;;;;4.38;3.10;;;;;;;21.00;100.00;99965.72;5007501;28;20426;-72
2023/08/29 08:30:34;;;;;;;3.65;3.22;;;;;;;21.11;100.00;99967.09;5006423;28;20200;-73
2023/08/29 08:33:00;;;;;;;5.93;3.30;;;;;;;21.29;100.00;99953.94;5003857;28;20756;-71
2023/08/29 08:35:27;;;;;;;4.32;3.92;;;;;;;21.19;100.00;99969.50;5002075;28;20711;-73
2023/08/29 08:37:57;;;;;;;7.55;3.78;;;;;;;20.79;100.00;99965.53;5002385;28;20874;-71
2023/08/29 08:40:23;;;;;;;4.38;3.97;;;;;;;20.88;100.00;99964.34;5002973;28;20283;-73
2023/08/29 08:42:50;;;;;;;5.47;4.47;;;;;;;20.73;100.00;99975.63;5002281;28;20203;-71
2023/08/29 08:45:17;;;;;;;5.03;4.38;;;;;;;20.68;100.00;99970.41;5002672;28;20722;-74
2023/08/29 08:47:43;;;;;;;5.55;3.78;;;;;;;20.86;100.00;99971.59;5003562;28;20227;-74
2023/08/29 08:50:10;;;;;;;6.75;4.10;;;;;;;21.05;100.00;99978.06;4997721;28;20208;-72
2023/08/29 08:52:38;;;;;;;6.82;3.92;;;;;;;21.38;100.00;99973.31;5021245;28;20275;-71
2023/08/29 08:55:06;;;;;;;4.20;3.67;;;;;;;21.29;100.00;99986.25;5007418;28;20247;-72
2023/08/29 08:57:33;;;;;;;5.25;3.65;;;;;;;21.32;100.00;99976.25;5006856;28;20277;-72
2023/08/29 08:59:59;;;;;;;5.47;4.25;;;;;;;21.14;100.00;99971.47;5005389;28;20295;-72
2023/08/29 09:02:27;;;;;;;6.20;4.00;;;;;;;21.43;89.41;99981.22;5007052;28;20204;-72
2023/08/29 09:04:53;;;;;;;4.47;3.60;;;;;;;21.44;80.66;99975.78;4999389;28;20209;-72
2023/08/29 09:07:20;;;;;;;5.35;3.33;;;;;;;21.67;77.04;99974.03;5005925;28;20224;-72
2023/08/29 09:10:05;;;;;;;4.95;3.83;;;;;;;21.48;79.01;99990.00;5003949;28;20227;-72
2023/08/29 09:12:31;;;;;;;5.20;4.43;;;;;;;21.36;76.64;99977.88;5001976;28;20657;-72
2023/08/29 09:15:02;;;;;;;8.65;4.28;;;;;;;21.26;77.37;99982.75;5005230;28;20203;-71
2023/08/29 09:17:28;;;;;;;5.65;4.15;;;;;;;21.19;78.06;99982.94;5008753;28;20317;-73
2023/08/29 09:19:58;;;;;;;6.22;5.30;;;;;;;21.30;76.84;99980.81;5004813;28;20206;-73
2023/08/29 09:22:25;;;;;;;6.55;4.63;;;;;;;21.41;76.80;99975.00;5010202;28;20202;-74
2023/08/29 09:24:51;;;;;;;6.88;4.32;;;;;;;21.30;75.42;99988.00;5005836;28;20764;-73
2023/08/29 09:27:17;;;;;;;6.40;4.38;;;;;;;21.35;76.42;99980.63;5006659;28;20220;-72
2023/08/29 09:29:44;;;;;;;4.97;4.47;;;;;;;21.49;74.71;99984.56;5006572;28;20816;-72
2023/08/29 09:32:13;;;;;;;6.03;4.30;;;;;;;21.39;76.26;99979.56;5006284;28;20200;-72
2023/08/29 09:34:41;;;;;;;7.00;4.55;;;;;;;21.21;77.50;99989.16;5002426;28;20283;-72
2023/08/29 09:37:11;;;;;;;5.15;4.13;;;;;;;21.00;76.13;99979.19;5007483;28;20741;-72
2023/08/29 09:39:38;;;;;;;5.57;4.30;;;;;;;21.24;74.20;99986.41;4998105;28;20199;-71
2023/08/29 09:42:06;;;;;;;5.65;4.43;;;;;;;21.34;73.63;99978.88;5003796;28;20295;-72
2023/08/29 09:44:37;;;;;;;5.30;4.10;;;;;;;21.20;74.22;99982.03;5008360;28;20252;-70
2023/08/29 09:47:05;;;;;;;6.07;3.80;;;;;;;21.64;72.80;99983.13;5002333;28;20216;-72
2023/08/29 09:49:42;;;;;;;5.25;3.58;;;;;;;22.13;72.00;99975.81;5004965;28;20722;-74
2023/08/29 09:52:10;;;;;;;7.18;5.38;;;;;;;22.16;69.75;99970.28;4998019;28;20620;-74
2023/08/29 09:54:44;;;;;;;5.43;4.25;;;;;;;22.10;70.03;99971.41;5006499;28;20208;-70
2023/08/29 09:57:12;;;;;;;6.93;4.15;;;;;;;22.47;69.61;99962.69;5004705;28;20732;-73
2023/08/29 09:59:41;;;;;;;4.07;3.60;;;;;;;22.64;67.10;99961.97;5005161;28;20200;-68
2023/08/29 10:02:10;;;;;;;5.55;3.90;;;;;;;22.86;66.23;99961.06;5001432;28;20204;-73
2023/08/29 10:04:46;;;;;;;5.43;4.00;;;;;;;23.15;65.88;99952.53;5005232;28;20199;-73
2023/08/29 10:07:23;;;;;;;4.78;3.63;;;;;;;23.09;66.62;99963.63;5000172;28;20223;-72
2023/08/29 10:09:50;;;;;;;6.57;4.40;;;;;;;22.52;66.16;99960.66;5003597;28;20220;-71
2023/08/29 10:12:18;;;;;;;4.78;4.10;;;;;;;22.10;67.10;99947.16;5003215;28;20216;-71
2023/08/29 10:14:45;;;;;;;6.50;3.63;;;;;;;22.28;66.23;99950.00;5004276;28;20584;-71
2023/08/29 10:17:14;;;;;;;7.35;3.30;;;;;;;22.45;64.69;99948.38;5005138;28;20247;-69
2023/08/29 10:19:58;;;;;;;3.05;2.75;;;;;;;22.92;63.34;99945.47;5005638;28;20608;-70
2023/08/29 10:22:28;;;;;;;4.10;3.00;;;;;;;23.55;60.42;99934.47;5001618;28;20208;-70
2023/08/29 10:24:58;;;;;;;4.15;3.30;;;;;;;23.89;60.83;99936.50;5006377;28;20212;-70
2023/08/29 10:27:25;;;;;;;4.00;3.08;;;;;;;23.80;59.10;99927.00;5004484;28;20232;-70
2023/08/29 10:29:51;;;;;;;3.38;2.72;;;;;;;24.27;59.37;99934.59;5041386;28;20219;-70
2023/08/29 10:32:19;;;;;;;3.28;2.88;;;;;;;24.23;58.85;99925.75;5006210;28;20234;-70
2023/08/29 10:34:46;;;;;;;2.88;2.53;;;;;;;23.72;62.33;99930.06;5004897;28;20564;-70
2023/08/29 10:37:17;;;;;;;3.20;2.60;;;;;;;23.40;62.25;99928.84;5009659;28;20311;-70
2023/08/29 10:39:44;;;;;;;3.30;2.65;;;;;;;23.05;62.99;99929.59;5010394;28;20203;-70
2023/08/29 10:42:13;;;;;;;2.95;2.60;;;;;;;22.24;63.76;99918.72;5009354;28;20195;-70
2023/08/29 10:44:42;;;;;;;3.67;2.65;;;;;;;22.25;64.48;99921.34;5008617;28;20216;-70
2023/08/29 10:47:30;;;;;;;2.40;2.08;;;;;;;22.07;62.10;99938.31;5010422;28;20244;-70
2023/08/29 10:50:07;;;;;;;2.05;1.75;;;;;;;21.94;61.59;99920.81;5006874;28;20232;-70
2023/08/29 10:52:40;;;;;;;3.60;2.10;;;;;;;22.02;63.63;99921.41;5012336;28;20227;-70
2023/08/29 10:55:21;;;;;;;2.33;2.05;;;;;;;22.06;64.83;99917.66;5008778;28;20228;-69
2023/08/29 10:57:48;;;;;;;2.72;2.20;;;;;;;22.17;65.01;99915.41;5010857;28;20615;-69
2023/08/29 11:00:34;;;;;;;4.25;2.60;;;;;;;22.08;64.84;99913.09;5007130;28;20201;-70
2023/08/29 11:03:02;;;;;;;5.43;2.40;;;;;;;22.38;64.11;99910.91;5009344;28;20214;-70
2023/08/29 11:05:30;;;;;;;3.63;2.53;;;;;;;22.29;62.37;99916.69;5007591;28;20204;-67
2023/08/29 11:08:19;;;;;;;4.22;2.45;;;;;;;21.86;64.75;99910.34;5007231;28;20223;-67
2023/08/29 11:11:21;;;;;;;3.38;2.10;;;;;;;21.71;64.26;99917.25;5005424;28;20192;-68
2023/08/29 11:13:58;;;;;;;2.38;1.90;;;;;;;21.39;65.22;99909.53;5009251;28;20208;-68
2023/08/29 11:16:26;;;;;;;2.70;2.00;;;;;;;21.05;67.62;99901.81;5009297;28;20303;-67
2023/08/29 11:19:14;;;;;;;3.28;1.80;;;;;;;21.13;68.52;99905.09;5008161;28;20247;-68
2023/08/29 11:21:44;;;;;;;2.65;1.90;;;;;;;21.11;69.19;99909.66;5006823;28;20215;-67
2023/08/29 11:24:11;;;;;;;4.28;1.92;;;;;;;21.04;68.32;99906.31;5007123;28;20207;-68
2023/08/29 11:26:46;;;;;;;3.80;1.90;;;;;;;21.06;68.86;99906.25;5009320;28;20219;-67
2023/08/29 11:29:13;;;;;;;3.35;2.38;;;;;;;20.85;67.43;99911.50;5009711;28;20299;-70
2023/08/29 11:31:43;;;;;;;6.15;2.80;;;;;;;20.64;70.19;99913.13;5008857;28;20200;-70